Time;durP1;ratioP1;P1;durP2;ratioP2;P2;SDS_P1;SDS_P2;PMS_P1;PMS_P2;Temp;Humidity;BMP_temperature;BMP_pressure;BME280_temperature;BME280_humidity;BME280_pressure;Samples;Min_cycle;Max_cycle;Signal;HPM_P1;HPM_P2
2023/01/11 00:00:31;;;;;;;1.55;1.13;;;;;;;5.45;73.40;96889.47;4993647;28;20129;-77
2023/01/11 00:03:00;;;;;;;2.72;1.10;;;;;;;5.45;72.27;96888.66;4993432;28;20432;-77
2023/01/11 00:05:28;;;;;;;3.38;1.23;;;;;;;5.40;72.62;96890.84;4996555;28;20050;-77
2023/01/11 00:07:56;;;;;;;1.58;1.00;;;;;;;5.33;72.79;96878.47;5012312;28;20129;-77
2023/01/11 00:10:23;;;;;;;5.13;1.02;;;;;;;5.29;72.38;96887.50;5007245;28;20051;-77
2023/01/11 00:12:51;;;;;;;4.05;1.33;;;;;;;5.24;71.92;96887.09;4995476;28;20054;-76
2023/01/11 00:15:20;;;;;;;2.70;1.35;;;;;;;5.20;72.61;96883.16;4993983;28;20047;-77
2023/01/11 00:17:47;;;;;;;3.42;1.38;;;;;;;5.20;73.08;96888.31;4992444;28;20124;-77
2023/01/11 00:20:16;;;;;;;2.22;1.38;;;;;;;5.24;72.78;96883.69;4993196;28;20053;-77
2023/01/11 00:22:43;;;;;;;2.58;1.40;;;;;;;5.27;73.62;96881.66;4993468;28;20057;-77
2023/01/11 00:25:12;;;;;;;4.00;1.13;;;;;;;5.28;73.37;96883.28;4993299;28;20050;-77
2023/01/11 00:27:40;;;;;;;3.05;1.05;;;;;;;5.28;73.49;96872.91;4993261;28;20543;-77
2023/01/11 00:30:09;;;;;;;2.67;1.10;;;;;;;5.29;72.97;96873.72;4992415;28;20061;-77
2023/01/11 00:32:37;;;;;;;5.80;1.27;;;;;;;5.29;72.42;96871.16;4993183;28;20057;-77
2023/01/11 00:35:06;;;;;;;1.80;1.70;;;;;;;5.26;72.02;96874.84;4993415;28;20057;-77
2023/01/11 00:37:34;;;;;;;3.45;1.33;;;;;;;5.27;72.54;96862.72;4993182;28;20080;-77
2023/01/11 00:40:01;;;;;;;5.78;1.58;;;;;;;5.25;72.76;96854.31;4992666;28;20050;-77
2023/01/11 00:48:09;;;;;;;3.10;1.30;;;;;;;5.18;73.87;96835.94;4992381;28;20061;-77
2023/01/11 00:50:39;;;;;;;2.85;1.45;;;;;;;5.20;73.67;96836.59;4993152;28;20054;-76
2023/01/11 00:53:08;;;;;;;4.60;1.75;;;;;;;5.20;73.67;96825.44;4993107;28;20142;-77
2023/01/11 00:55:35;;;;;;;3.88;1.60;;;;;;;5.18;72.94;96830.75;4992977;28;20061;-77
2023/01/11 00:58:04;;;;;;;3.45;1.80;;;;;;;5.16;73.60;96825.75;4992342;28;20100;-77
2023/01/11 01:00:31;;;;;;;6.70;3.47;;;;;;;5.14;73.82;96819.09;4992724;28;20141;-77
2023/01/11 01:02:59;;;;;;;3.78;2.42;;;;;;;5.07;73.01;96811.09;4993267;28;20134;-77
2023/01/11 01:05:28;;;;;;;3.97;1.92;;;;;;;5.05;73.27;96814.75;4993061;28;20057;-77
2023/01/11 01:07:55;;;;;;;9.73;2.10;;;;;;;5.03;72.48;96817.50;4992000;28;20062;-76
2023/01/11 01:10:23;;;;;;;4.40;1.70;;;;;;;5.01;72.48;96821.16;4992812;28;20493;-77
2023/01/11 01:15:35;;;;;;;3.05;1.30;;;;;;;5.00;73.11;96825.50;4992791;28;20065;-77
2023/01/11 01:18:03;;;;;;;4.70;1.90;;;;;;;5.03;72.79;96825.25;4992100;28;20262;-77
2023/01/11 01:20:32;;;;;;;2.95;1.52;;;;;;;5.07;72.39;96833.53;4992571;28;20519;-77
2023/01/11 01:22:59;;;;;;;3.13;1.90;;;;;;;5.10;72.35;96830.66;4992957;28;20061;-76
2023/01/11 01:25:27;;;;;;;2.65;1.55;;;;;;;5.13;72.81;96831.19;4992851;28;20054;-77
2023/01/11 01:27:54;;;;;;;5.22;1.90;;;;;;;5.16;72.66;96828.34;4992065;28;20485;-77
2023/01/11 01:30:22;;;;;;;4.05;1.48;;;;;;;5.14;71.76;96824.25;4994445;28;20046;-77
2023/01/11 01:32:50;;;;;;;4.30;1.42;;;;;;;5.11;72.14;96827.13;4996624;28;20058;-76
2023/01/11 01:35:17;;;;;;;2.35;1.23;;;;;;;5.10;72.26;96823.72;4996602;28;20053;-77
2023/01/11 01:37:46;;;;;;;4.03;1.52;;;;;;;5.11;73.05;96825.34;4995877;28;20050;-77
2023/01/11 01:40:14;;;;;;;2.95;1.63;;;;;;;5.11;72.80;96819.34;4996113;28;20666;-77
2023/01/11 01:42:41;;;;;;;3.83;1.73;;;;;;;5.14;72.78;96821.69;4996300;28;20061;-77
2023/01/11 01:45:22;;;;;;;3.83;1.92;;;;;;;5.18;73.48;96823.00;4996061;28;20056;-77
2023/01/11 01:47:55;;;;;;;4.28;2.40;;;;;;;5.19;73.01;96809.13;4995672;28;20194;-76
2023/01/11 01:50:27;;;;;;;4.22;2.30;;;;;;;5.22;73.39;96805.44;4996385;28;20054;-77
2023/01/11 01:53:03;;;;;;;5.85;2.20;;;;;;;5.20;73.27;96805.56;4996135;28;20054;-77
2023/01/11 01:55:34;;;;;;;4.22;2.50;;;;;;;5.18;73.15;96810.06;4996078;28;20078;-77
2023/01/11 01:58:06;;;;;;;7.15;2.35;;;;;;;5.11;73.33;96799.47;4995021;28;20053;-76
2023/01/11 02:00:34;;;;;;;3.80;2.43;;;;;;;5.06;73.12;96787.94;4995931;28;20475;-77
2023/01/11 02:03:02;;;;;;;2.97;1.83;;;;;;;4.97;73.41;96788.81;4995816;28;20283;-77
2023/01/11 02:05:30;;;;;;;4.78;1.75;;;;;;;4.89;73.41;96779.97;4995481;28;20054;-77
2023/01/11 02:08:05;;;;;;;5.45;2.85;;;;;;;4.81;73.80;96785.06;4994963;28;20065;-77
2023/01/11 02:10:32;;;;;;;5.35;3.10;;;;;;;4.76;73.87;96771.72;4995585;28;20055;-76
2023/01/11 02:13:03;;;;;;;4.63;2.55;;;;;;;4.72;73.85;96766.03;4995698;28;20055;-77
2023/01/11 02:15:32;;;;;;;5.82;2.38;;;;;;;4.72;74.15;96767.78;4995673;28;20054;-77
2023/01/11 02:17:59;;;;;;;6.22;3.05;;;;;;;4.72;73.79;96765.19;4994948;28;20515;-77
2023/01/11 02:20:41;;;;;;;6.80;2.65;;;;;;;4.72;74.86;96763.47;4995552;28;20062;-77
2023/01/11 02:23:38;;;;;;;4.65;2.15;;;;;;;4.71;74.39;96766.16;4995626;28;20058;-77
2023/01/11 02:26:40;;;;;;;6.50;2.45;;;;;;;4.70;74.23;96767.94;4995487;28;20057;-77
2023/01/11 02:29:16;;;;;;;5.85;2.03;;;;;;;4.72;74.48;96760.88;4995044;28;20126;-77
2023/01/11 02:31:51;;;;;;;3.67;1.98;;;;;;;4.74;74.28;96765.88;4995404;28;20046;-77
2023/01/11 02:34:31;;;;;;;5.57;1.58;;;;;;;4.75;74.49;96763.16;4995173;28;20496;-77
2023/01/11 02:37:10;;;;;;;1.95;1.23;;;;;;;4.77;74.52;96755.28;4995764;28;20403;-77
2023/01/11 02:39:49;;;;;;;3.97;1.55;;;;;;;4.82;74.98;96752.25;4994359;28;20494;-77
2023/01/11 02:45:19;;;;;;;5.70;1.60;;;;;;;4.88;74.97;96736.19;4995162;28;20068;-77
2023/01/11 02:47:52;;;;;;;4.13;2.13;;;;;;;4.89;74.22;96724.88;4994492;28;20076;-77
2023/01/11 02:50:28;;;;;;;1.35;1.20;;;;;;;4.91;74.48;96731.53;4998921;28;20061;-77
2023/01/11 02:53:00;;;;;;;2.28;1.40;;;;;;;4.96;74.60;96738.84;5014687;28;20050;-76
2023/01/11 02:55:33;;;;;;;2.75;1.73;;;;;;;4.97;74.96;96735.34;5005782;28;20063;-77
2023/01/11 02:58:02;;;;;;;4.55;1.50;;;;;;;5.00;74.93;96724.69;4995200;28;20077;-77
2023/01/11 03:00:32;;;;;;;2.65;1.50;;;;;;;5.05;74.60;96729.44;4995689;28;20054;-77
2023/01/11 03:03:13;;;;;;;3.65;1.48;;;;;;;5.10;75.81;96730.63;4995199;28;20058;-77
2023/01/11 03:05:46;;;;;;;2.60;1.52;;;;;;;5.14;74.73;96716.47;4994965;28;20317;-77
2023/01/11 03:08:28;;;;;;;3.78;1.50;;;;;;;5.13;74.60;96714.81;4993810;28;20056;-77
2023/01/11 03:11:04;;;;;;;2.13;1.63;;;;;;;5.13;74.54;96716.59;4994549;28;20047;-77
2023/01/11 03:13:40;;;;;;;3.00;1.20;;;;;;;5.15;74.08;96728.41;5016963;22;20049;-79
2023/01/11 03:16:21;;;;;;;2.03;1.20;;;;;;;5.16;74.22;96721.50;4995900;28;20050;-79
2023/01/11 03:19:03;;;;;;;4.22;1.00;;;;;;;5.15;74.69;96714.69;4995490;28;20055;-79
2023/01/11 03:21:46;;;;;;;3.97;1.00;;;;;;;5.16;74.16;96708.56;4995204;28;20500;-79
2023/01/11 03:24:25;;;;;;;3.42;1.20;;;;;;;5.16;73.91;96713.75;4995482;28;20504;-79
2023/01/11 03:27:08;;;;;;;2.50;1.20;;;;;;;5.17;74.03;96707.59;4995327;28;20492;-79
2023/01/11 03:29:39;;;;;;;2.55;1.10;;;;;;;5.16;73.84;96709.38;4995113;28;20062;-79
2023/01/11 03:32:24;;;;;;;0.80;0.80;;;;;;;5.20;74.30;96701.31;4995454;28;20054;-79
2023/01/11 03:35:02;;;;;;;1.95;0.80;;;;;;;5.20;74.09;96699.53;4994881;28;20073;-79
2023/01/11 03:37:36;;;;;;;4.47;1.08;;;;;;;5.20;73.64;96698.72;4994942;28;20042;-79
2023/01/11 03:40:10;;;;;;;0.93;0.90;;;;;;;5.19;73.79;96697.94;4994390;28;20584;-80
2023/01/11 03:45:27;;;;;;;3.40;1.08;;;;;;;5.20;73.79;96693.56;4994895;28;20516;-79
2023/01/11 03:48:01;;;;;;;1.30;0.68;;;;;;;5.21;73.83;96690.03;5017420;28;20034;-80
2023/01/11 03:50:30;;;;;;;1.77;0.95;;;;;;;5.24;73.82;96694.91;5016877;28;20086;-80
2023/01/11 03:53:01;;;;;;;2.92;1.23;;;;;;;5.25;73.84;96689.59;4999148;28;20050;-79
2023/01/11 03:55:33;;;;;;;1.90;0.90;;;;;;;5.28;74.14;96698.81;4995659;28;20568;-79
2023/01/11 03:58:02;;;;;;;2.90;0.93;;;;;;;5.33;73.95;96704.34;4995147;28;20077;-79
2023/01/11 04:00:31;;;;;;;3.00;0.93;;;;;;;5.37;73.99;96703.13;4994937;28;20062;-79
2023/01/11 04:03:01;;;;;;;2.15;0.90;;;;;;;5.41;74.10;96704.44;4994832;28;20062;-80
2023/01/11 04:05:29;;;;;;;1.95;0.80;;;;;;;5.46;73.58;96710.00;5013036;28;20050;-80
2023/01/11 04:07:57;;;;;;;1.20;0.90;;;;;;;5.51;73.89;96694.03;5017128;28;20030;-81
2023/01/11 04:10:26;;;;;;;0.88;0.73;;;;;;;5.54;73.83;96699.72;4998627;28;20516;-79
2023/01/11 04:12:54;;;;;;;3.58;0.90;;;;;;;5.58;73.65;96703.66;4994707;28;20437;-80
2023/01/11 04:15:23;;;;;;;2.08;0.80;;;;;;;5.58;73.64;96690.72;4996910;28;20077;-79
2023/01/11 04:17:51;;;;;;;0.95;0.75;;;;;;;5.58;74.11;96689.91;4998251;28;20050;-82
2023/01/11 04:20:20;;;;;;;1.83;0.88;;;;;;;5.63;74.15;96689.44;5018842;28;20038;-79
2023/01/11 04:22:49;;;;;;;2.05;0.98;;;;;;;5.66;74.11;96689.16;5018999;28;20030;-81
2023/01/11 04:25:17;;;;;;;1.63;0.93;;;;;;;5.71;74.03;96686.94;5000978;28;20069;-79
2023/01/11 04:27:45;;;;;;;4.65;1.10;;;;;;;5.74;74.38;96677.09;4994489;28;20160;-80
2023/01/11 04:30:13;;;;;;;3.22;1.75;;;;;;;5.75;74.24;96677.88;4994773;28;20042;-79
2023/01/11 04:32:42;;;;;;;1.52;0.93;;;;;;;5.77;74.30;96671.63;4994374;28;20070;-79
2023/01/11 04:35:10;;;;;;;3.17;1.05;;;;;;;5.81;74.39;96666.13;4994189;28;20559;-79
2023/01/11 04:37:40;;;;;;;1.75;0.98;;;;;;;5.83;75.05;96675.38;4994398;28;20046;-80
2023/01/11 04:40:10;;;;;;;4.57;1.30;;;;;;;5.85;75.58;96672.66;4994412;28;20058;-79
2023/01/11 04:42:37;;;;;;;2.53;0.77;;;;;;;5.87;75.17;96674.13;4994362;28;20046;-79
2023/01/11 04:45:09;;;;;;;2.97;0.85;;;;;;;5.88;75.20;96669.75;4994833;28;20109;-79
2023/01/11 04:47:43;;;;;;;1.40;1.00;;;;;;;5.85;74.61;96667.47;4994522;28;20057;-79
2023/01/11 04:50:16;;;;;;;2.95;1.10;;;;;;;5.86;74.44;96674.25;4996394;28;20061;-80
2023/01/11 04:52:48;;;;;;;4.20;1.27;;;;;;;5.90;74.35;96675.59;4994558;28;20081;-80
2023/01/11 04:55:18;;;;;;;2.38;0.85;;;;;;;5.93;74.08;96670.94;4994669;28;20072;-79
2023/01/11 04:57:51;;;;;;;1.77;1.00;;;;;;;5.97;74.20;96677.47;4994421;28;20049;-80
2023/01/11 05:00:22;;;;;;;2.22;1.33;;;;;;;5.98;74.19;96668.72;4994462;28;20086;-79
2023/01/11 05:02:51;;;;;;;3.72;1.95;;;;;;;6.00;74.34;96665.19;4994695;28;20141;-79
2023/01/11 05:05:21;;;;;;;3.30;1.20;;;;;;;6.00;74.71;96654.84;4996179;28;20101;-79
2023/01/11 05:07:56;;;;;;;3.40;1.58;;;;;;;5.99;74.91;96654.00;4998272;28;20065;-81
2023/01/11 05:10:26;;;;;;;4.65;1.90;;;;;;;6.00;74.83;96649.66;4997410;28;20061;-80
2023/01/11 05:13:07;;;;;;;6.65;2.38;;;;;;;5.96;73.87;96660.28;4998045;28;20150;-79
2023/01/11 05:16:02;;;;;;;4.72;2.40;;;;;;;5.94;74.09;96659.63;4997476;28;20050;-79
2023/01/11 05:19:05;;;;;;;5.38;2.28;;;;;;;5.93;73.83;96652.81;4997794;28;20038;-79
2023/01/11 05:21:44;;;;;;;5.72;2.45;;;;;;;5.91;73.46;96646.16;5000132;28;20129;-79
2023/01/11 05:24:35;;;;;;;4.50;1.90;;;;;;;5.90;73.97;96645.34;5017477;28;20130;-79
2023/01/11 05:30:04;;;;;;;3.28;2.25;;;;;;;5.94;74.30;96640.66;4995636;28;20057;-79
2023/01/11 05:32:50;;;;;;;3.45;1.85;;;;;;;5.94;73.81;96631.16;5015623;28;20057;-80
2023/01/11 05:36:06;;;;;;;4.40;1.90;;;;;;;5.95;73.55;96629.41;5017613;28;20049;-79
2023/01/11 05:45:38;;;;;;;1.80;1.10;;;;;;;5.93;73.61;96618.34;4996913;28;20129;-79
2023/01/11 05:48:09;;;;;;;2.88;1.35;;;;;;;5.93;73.53;96628.69;4997169;28;20432;-80
2023/01/11 05:54:29;;;;;;;2.88;1.55;;;;;;;5.92;73.84;96629.66;4980296;28;20092;-79
2023/01/11 05:57:11;;;;;;;5.63;2.20;;;;;;;5.94;74.24;96638.06;4997451;28;20109;-79
2023/01/11 05:59:44;;;;;;;2.20;1.40;;;;;;;5.93;74.26;96634.69;4997791;28;20050;-81
2023/01/11 06:02:21;;;;;;;3.78;2.30;;;;;;;5.92;74.41;96632.25;5008335;28;20052;-80
2023/01/11 06:04:52;;;;;;;5.07;1.67;;;;;;;5.93;74.53;96631.28;5007884;28;20520;-81
2023/01/11 06:07:35;;;;;;;3.40;1.30;;;;;;;5.94;74.72;96631.16;4957414;29;20058;-80
2023/01/11 06:15:50;;;;;;;;;;;;;;;6.07;75.21;96630.75;4955748;28;20110;-79
2023/01/11 06:31:53;;;;;;;6.57;2.25;;;;;;;6.17;74.38;96612.53;6374889;22;20464;-79
2023/01/11 06:34:20;;;;;;;4.75;2.65;;;;;;;6.17;74.63;96621.09;6205669;22;1182436;-80
2023/01/11 06:36:48;;;;;;;4.35;2.10;;;;;;;6.19;74.90;96613.19;6251230;23;20030;-78
2023/01/11 06:39:16;;;;;;;3.95;2.45;;;;;;;6.22;74.79;96612.88;6244671;23;20384;-80
2023/01/11 06:41:43;;;;;;;6.82;2.22;;;;;;;6.23;75.12;96618.84;6248695;23;20020;-80
2023/01/11 06:44:11;;;;;;;5.40;2.20;;;;;;;6.26;75.26;96615.97;6254200;23;20054;-81
2023/01/11 06:46:38;;;;;;;5.28;2.38;;;;;;;6.29;75.04;96618.25;6250878;22;20020;-81
2023/01/11 06:49:07;;;;;;;2.95;1.65;;;;;;;6.31;75.66;96621.50;6254595;23;20472;-81
2023/01/11 06:51:35;;;;;;;15.00;3.45;;;;;;;6.33;75.88;96614.38;6254314;23;20468;-80
2023/01/11 06:54:03;;;;;;;5.35;2.45;;;;;;;6.35;75.84;96604.69;6253974;23;20016;-81
2023/01/11 06:56:31;;;;;;;2.72;1.83;;;;;;;6.37;75.62;96611.31;6254985;23;20031;-80
2023/01/11 06:58:58;;;;;;;3.58;2.13;;;;;;;6.38;75.38;96609.53;6252264;23;20019;-80
2023/01/11 07:07:33;;;;;;;3.17;1.70;;;;;;;6.47;75.47;96607.78;6249263;23;20480;-80
2023/01/11 07:10:01;;;;;;;3.35;2.13;;;;;;;6.51;75.02;96602.16;6255002;22;20046;-80
2023/01/11 07:12:29;;;;;;;3.63;2.40;;;;;;;6.53;75.09;96604.59;6254814;23;20024;-81
2023/01/11 07:14:57;;;;;;;4.72;2.15;;;;;;;6.52;75.21;96600.38;6259275;22;20620;-80
2023/01/11 07:17:25;;;;;;;5.68;2.25;;;;;;;6.52;74.86;96608.16;6265153;22;20032;-81
2023/01/11 07:31:49;;;;;;;6.70;2.38;;;;;;;6.38;74.66;96597.41;6259403;22;20077;-79
2023/01/11 07:34:18;;;;;;;4.50;3.05;;;;;;;6.35;74.68;96602.09;6310353;22;20030;-79
2023/01/11 07:36:45;;;;;;;5.40;2.45;;;;;;;6.31;74.80;96611.13;6310111;22;20027;-79
2023/01/11 07:53:39;;;;;;;2.33;1.67;;;;;;;6.23;74.55;96583.44;6236919;22;20078;-79
2023/01/11 07:56:07;;;;;;;2.33;1.20;;;;;;;6.23;74.60;96587.78;6241265;23;20024;-80
2023/01/11 07:58:35;;;;;;;2.72;1.85;;;;;;;6.19;74.65;96582.91;6240577;23;20005;-80
2023/01/11 08:01:03;;;;;;;3.83;1.70;;;;;;;6.21;74.26;96594.88;6218520;23;20020;-79
2023/01/11 08:03:31;;;;;;;5.13;3.28;;;;;;;6.22;74.38;96601.72;6218010;23;20410;-79
2023/01/11 08:05:59;;;;;;;2.90;1.50;;;;;;;6.23;74.10;96595.53;6217805;23;20028;-79
2023/01/11 08:08:27;;;;;;;2.13;1.60;;;;;;;6.26;74.33;96603.03;6216166;23;20055;-79
2023/01/11 08:16:26;;;;;;;3.80;1.33;;;;;;;6.29;74.05;96592.34;6217539;23;20104;-79
2023/01/11 08:18:54;;;;;;;1.88;1.15;;;;;;;6.31;74.31;96595.59;6216765;23;20356;-80
2023/01/11 08:35:20;;;;;;;1.48;1.25;;;;;;;6.48;73.65;96607.66;6201301;22;20818;-80
2023/01/11 08:37:48;;;;;;;1.65;1.10;;;;;;;6.52;73.42;96608.97;6278274;22;20339;-80
2023/01/11 08:40:16;;;;;;;1.50;1.27;;;;;;;6.55;73.14;96603.47;6278647;22;20012;-80
2023/01/11 08:42:46;;;;;;;3.05;1.40;;;;;;;6.58;73.37;96603.16;6277605;22;20020;-80
2023/01/11 08:45:14;;;;;;;3.05;1.30;;;;;;;6.64;73.19;96601.72;6248327;23;20048;-81
2023/01/11 08:47:42;;;;;;;2.08;1.75;;;;;;;6.70;72.84;96608.88;6247540;23;20051;-80
2023/01/11 08:50:11;;;;;;;2.53;1.20;;;;;;;6.79;72.64;96607.13;6247431;23;20032;-80
2023/01/11 08:52:42;;;;;;;2.35;1.58;;;;;;;6.85;72.26;96611.66;6246929;23;20027;-80
2023/01/11 09:14:41;;;;;;;2.40;1.67;;;;;;;7.16;71.00;96626.66;6224879;22;20409;-75
2023/01/11 09:17:09;;;;;;;5.32;2.55;;;;;;;7.18;71.29;96620.31;6243213;23;20031;-75
2023/01/11 09:19:37;;;;;;;2.80;1.80;;;;;;;7.23;70.94;96617.25;6243182;23;20023;-75
2023/01/11 09:22:04;;;;;;;3.50;2.00;;;;;;;7.25;71.73;96622.28;6242646;23;20092;-76
2023/01/11 09:24:32;;;;;;;5.55;2.17;;;;;;;7.26;71.79;96611.75;6253325;22;20020;-75
2023/01/11 09:27:00;;;;;;;5.50;2.28;;;;;;;7.30;71.49;96617.41;6275811;22;20474;-75
2023/01/11 09:29:28;;;;;;;3.75;1.70;;;;;;;7.33;71.52;96610.13;6273160;22;20027;-75
2023/01/11 09:31:57;;;;;;;2.83;1.40;;;;;;;7.38;72.48;96610.47;6275559;22;20023;-75
2023/01/11 09:34:26;;;;;;;5.65;1.50;;;;;;;7.41;72.11;96609.31;6272610;22;20359;-73
2023/01/11 09:36:55;;;;;;;2.17;0.80;;;;;;;7.46;71.96;96607.06;6274564;22;20069;-75
2023/01/11 09:39:25;;;;;;;1.40;0.60;;;;;;;7.51;72.42;96606.56;6269692;22;20059;-75
2023/01/11 09:42:20;;;;;;;4.32;1.88;;;;;;;7.53;72.46;96597.66;6272948;22;20024;-75
2023/01/11 09:44:51;;;;;;;4.47;2.58;;;;;;;7.55;71.87;96606.09;6273837;22;20020;-75
2023/01/11 09:47:30;;;;;;;4.05;2.00;;;;;;;7.60;73.07;96593.44;6272529;22;20019;-74
2023/01/11 09:50:02;;;;;;;3.40;1.35;;;;;;;7.65;73.01;96585.16;6272649;22;20098;-75
2023/01/11 09:52:35;;;;;;;1.85;1.23;;;;;;;7.67;73.07;96579.78;6274953;22;20094;-76
2023/01/11 09:55:04;;;;;;;2.90;1.55;;;;;;;7.71;72.54;96584.50;6273432;22;20352;-75
2023/01/11 09:57:48;;;;;;;3.38;1.55;;;;;;;7.74;72.73;96581.59;6274078;22;20027;-75
2023/01/11 10:00:22;;;;;;;4.05;1.50;;;;;;;7.75;71.79;96572.81;6275095;22;20023;-75
2023/01/11 10:03:13;;;;;;;1.23;1.00;;;;;;;7.78;72.27;96579.44;6272216;22;20114;-75
2023/01/11 10:05:58;;;;;;;2.63;0.95;;;;;;;7.80;72.29;96565.31;6274659;22;20023;-75
2023/01/11 10:08:40;;;;;;;1.80;1.27;;;;;;;7.86;72.66;96571.66;6273049;22;20023;-75
2023/01/11 10:11:40;;;;;;;1.58;0.68;;;;;;;7.92;72.45;96560.63;6273390;22;20070;-75
2023/01/11 10:14:39;;;;;;;1.17;1.00;;;;;;;7.99;73.14;96564.16;6274744;22;20020;-76
2023/01/11 10:17:37;;;;;;;2.47;0.82;;;;;;;8.06;73.84;96564.31;6273890;22;20073;-76
2023/01/11 10:20:34;;;;;;;1.00;0.57;;;;;;;8.09;74.36;96564.00;6273554;22;20019;-76
2023/01/11 10:23:08;;;;;;;0.50;0.50;;;;;;;8.12;73.76;96555.84;6273788;22;20050;-75
2023/01/11 10:25:45;;;;;;;1.45;0.65;;;;;;;8.15;73.85;96550.31;6274647;22;20019;-75
2023/01/11 10:28:22;;;;;;;1.23;0.50;;;;;;;8.20;74.05;96549.81;6271593;22;20024;-74
2023/01/11 10:31:06;;;;;;;3.47;0.90;;;;;;;8.26;74.37;96551.72;6274568;22;20024;-74
2023/01/11 10:33:56;;;;;;;0.88;0.60;;;;;;;8.28;74.54;96551.56;6272640;22;20077;-75
2023/01/11 10:36:50;;;;;;;1.30;0.88;;;;;;;8.30;73.97;96547.03;6274808;22;20482;-74
2023/01/11 10:39:45;;;;;;;1.30;0.82;;;;;;;8.32;73.86;96547.66;6272383;22;20333;-74
2023/01/11 10:42:20;;;;;;;3.55;0.98;;;;;;;8.33;74.00;96537.09;6274130;22;20094;-75
2023/01/11 10:44:58;;;;;;;2.72;1.05;;;;;;;8.33;73.85;96541.47;6273715;22;20024;-74
2023/01/11 10:47:31;;;;;;;2.10;1.48;;;;;;;8.36;73.97;96536.75;6272769;22;20028;-74
2023/01/11 10:50:03;;;;;;;2.47;1.00;;;;;;;8.38;73.85;96539.19;6273108;22;20481;-75
2023/01/11 10:52:40;;;;;;;3.00;1.45;;;;;;;8.41;73.62;96541.47;6271639;22;20020;-75
2023/01/11 10:55:13;;;;;;;2.15;1.40;;;;;;;8.45;73.76;96545.34;6273935;22;20085;-74
2023/01/11 10:57:54;;;;;;;3.50;1.10;;;;;;;8.49;74.02;96540.66;6273570;22;20019;-74
2023/01/11 11:00:39;;;;;;;3.10;1.15;;;;;;;8.54;74.29;96540.94;6274384;22;20398;-74
2023/01/11 11:03:19;;;;;;;1.88;1.00;;;;;;;8.57;74.15;96543.19;6273846;22;20490;-74
2023/01/11 11:05:53;;;;;;;1.42;0.75;;;;;;;8.58;73.97;96545.63;6271493;22;20035;-74
2023/01/11 11:08:30;;;;;;;1.70;1.10;;;;;;;8.61;74.25;96534.06;6275371;22;20019;-75
2023/01/11 11:11:01;;;;;;;3.75;1.10;;;;;;;8.63;74.42;96542.50;6288681;22;20055;-74
2023/01/11 11:13:41;;;;;;;2.03;1.10;;;;;;;8.64;74.53;96531.13;6292862;22;20023;-73
2023/01/11 11:16:19;;;;;;;2.10;1.30;;;;;;;8.65;75.21;96530.94;6275180;22;20028;-75
2023/01/11 11:18:48;;;;;;;1.55;1.42;;;;;;;8.66;74.91;96523.97;6276207;22;20098;-74
2023/01/11 11:21:22;;;;;;;2.67;1.00;;;;;;;8.66;75.62;96524.78;6276390;22;20409;-75
2023/01/11 11:23:58;;;;;;;2.55;1.50;;;;;;;8.69;75.88;96513.22;6276344;22;20020;-75
2023/01/11 11:26:31;;;;;;;3.80;1.48;;;;;;;8.72;75.91;96517.25;6275927;22;20023;-75
2023/01/11 11:29:02;;;;;;;1.85;1.15;;;;;;;8.77;76.22;96512.38;6273568;22;20077;-74
2023/01/11 11:31:31;;;;;;;1.75;1.20;;;;;;;8.78;75.95;96508.78;6275892;22;20529;-75
2023/01/11 11:34:05;;;;;;;1.15;0.93;;;;;;;8.80;76.47;96501.63;6275611;22;20030;-75
2023/01/11 11:36:42;;;;;;;2.17;1.23;;;;;;;8.85;76.63;96499.28;6275750;22;20034;-75
2023/01/11 11:39:20;;;;;;;2.25;0.80;;;;;;;8.89;76.97;96499.78;6274417;22;20383;-74
2023/01/11 11:41:50;;;;;;;1.92;0.90;;;;;;;8.92;76.48;96492.44;6276073;22;20020;-80
2023/01/11 11:44:21;;;;;;;1.10;0.75;;;;;;;8.94;77.11;96498.25;6277035;22;20026;-80
2023/01/11 11:46:57;;;;;;;0.88;0.60;;;;;;;8.94;77.85;96493.03;6275732;22;20016;-81
2023/01/11 11:49:26;;;;;;;2.83;0.93;;;;;;;8.94;77.84;96500.84;6275971;22;20532;-81
2023/01/11 11:51:54;;;;;;;1.42;0.90;;;;;;;8.95;77.48;96493.88;6274805;22;20024;-75
2023/01/11 11:54:27;;;;;;;2.22;1.48;;;;;;;9.00;78.66;96491.56;6274909;22;20422;-74
2023/01/11 11:56:57;;;;;;;1.85;0.90;;;;;;;9.03;78.23;96486.00;6277324;22;20024;-75
2023/01/11 11:59:31;;;;;;;1.20;0.82;;;;;;;9.06;78.38;96486.47;6275392;22;20032;-74
2023/01/11 12:02:01;;;;;;;0.93;0.73;;;;;;;9.09;78.51;96480.09;6276391;22;20402;-75
2023/01/11 12:04:46;;;;;;;1.27;0.45;;;;;;;9.13;78.82;96470.16;6274125;22;20023;-76
2023/01/11 12:07:15;;;;;;;1.23;0.47;;;;;;;9.15;78.04;96468.19;6275872;22;20026;-76
2023/01/11 12:09:48;;;;;;;0.30;0.20;;;;;;;9.18;77.90;96462.63;6272071;22;20023;-76
2023/01/11 12:12:18;;;;;;;0.93;0.38;;;;;;;9.22;77.98;96461.28;6276431;22;20020;-75
2023/01/11 12:15:07;;;;;;;2.10;0.60;;;;;;;9.25;77.44;96458.34;6273194;22;20027;-75
2023/01/11 12:17:35;;;;;;;0.30;0.30;;;;;;;9.27;77.43;96456.34;6244711;23;20030;-75
2023/01/11 12:20:22;;;;;;;1.98;0.40;;;;;;;9.29;77.66;96464.78;6241666;23;20020;-75
2023/01/11 12:23:07;;;;;;;0.75;0.35;;;;;;;9.31;77.83;96462.03;6244779;23;20020;-76
2023/01/11 12:25:45;;;;;;;0.73;0.40;;;;;;;9.32;77.47;96454.03;6243336;23;20024;-75
2023/01/11 12:28:26;;;;;;;1.58;0.70;;;;;;;9.34;77.21;96452.06;6243399;23;20099;-75
2023/01/11 12:31:03;;;;;;;1.40;0.88;;;;;;;9.37;77.51;96456.13;6244002;23;20083;-74
2023/01/11 12:33:42;;;;;;;1.52;0.90;;;;;;;9.38;77.78;96453.34;6243253;23;20055;-75
2023/01/11 12:36:15;;;;;;;4.38;1.23;;;;;;;9.39;77.91;96454.94;6244631;23;20020;-75
2023/01/11 12:38:55;;;;;;;1.52;0.80;;;;;;;9.42;77.91;96459.81;6239231;23;20024;-75
2023/01/11 12:41:50;;;;;;;1.02;0.75;;;;;;;9.45;77.82;96461.25;6242016;23;20482;-75
2023/01/11 12:44:33;;;;;;;0.82;0.30;;;;;;;9.45;77.94;96464.66;6243283;23;20059;-75
2023/01/11 12:47:30;;;;;;;0.20;0.20;;;;;;;9.44;77.89;96463.03;6243334;23;20020;-76
2023/01/11 12:50:09;;;;;;;0.52;0.40;;;;;;;9.42;77.71;96464.19;6241815;23;20027;-75
2023/01/11 12:53:16;;;;;;;0.20;0.20;;;;;;;9.44;78.23;96476.03;6243922;23;20012;-75
2023/01/11 12:55:56;;;;;;;0.13;0.13;;;;;;;9.44;77.70;96457.00;6213250;23;20023;-75
2023/01/11 12:58:31;;;;;;;0.47;0.20;;;;;;;9.46;78.23;96458.44;6243290;23;20452;-76
2023/01/11 13:01:12;;;;;;;0.32;0.17;;;;;;;9.50;77.96;96456.31;6242528;23;20020;-75
2023/01/11 13:04:13;;;;;;;0.43;0.15;;;;;;;9.52;77.96;96469.97;6244981;23;20016;-75
2023/01/11 13:06:52;;;;;;;0.52;0.30;;;;;;;9.57;77.94;96466.81;6242591;23;20024;-75
2023/01/11 13:09:35;;;;;;;0.32;0.30;;;;;;;9.57;77.86;96462.41;6242609;23;20020;-75
2023/01/11 13:12:10;;;;;;;0.20;0.20;;;;;;;9.58;77.64;96463.25;6242710;23;20047;-75
2023/01/11 13:15:04;;;;;;;0.20;0.20;;;;;;;9.57;78.04;96464.22;6243428;23;20026;-75
2023/01/11 13:17:38;;;;;;;0.30;0.15;;;;;;;9.59;78.05;96475.25;6242588;23;20020;-75
2023/01/11 13:20:22;;;;;;;2.58;0.80;;;;;;;9.61;78.11;96473.28;6242678;23;20020;-75
2023/01/11 13:22:54;;;;;;;0.70;0.35;;;;;;;9.62;78.29;96474.88;6242387;23;20022;-75
2023/01/11 13:25:25;;;;;;;0.55;0.35;;;;;;;9.64;77.75;96472.91;6243593;23;20016;-76
2023/01/11 13:27:55;;;;;;;0.93;0.35;;;;;;;9.64;77.87;96468.53;6243057;23;20511;-76
2023/01/11 13:30:25;;;;;;;2.05;1.08;;;;;;;9.68;78.19;96469.78;6241999;23;20490;-75
2023/01/11 13:32:57;;;;;;;0.30;0.20;;;;;;;9.71;78.24;96471.25;6243970;23;20023;-75
2023/01/11 13:35:35;;;;;;;0.28;0.28;;;;;;;9.71;78.03;96468.63;6243226;23;20111;-75
2023/01/11 13:38:11;;;;;;;0.30;0.30;;;;;;;9.68;78.24;96485.41;6242761;23;20020;-75
2023/01/11 13:40:45;;;;;;;0.52;0.30;;;;;;;9.69;78.52;96483.63;6243336;23;20030;-74
2023/01/11 13:43:18;;;;;;;0.82;0.52;;;;;;;9.67;78.56;96489.00;6241476;23;20038;-75
2023/01/11 13:45:51;;;;;;;0.43;0.30;;;;;;;9.65;78.88;96482.38;6244245;23;20020;-76
2023/01/11 13:48:25;;;;;;;0.45;0.20;;;;;;;9.63;79.08;96485.13;6242054;23;20090;-76
2023/01/11 13:50:58;;;;;;;1.90;0.45;;;;;;;9.60;78.86;96488.13;6242348;23;20016;-75
2023/01/11 13:53:35;;;;;;;0.47;0.47;;;;;;;9.58;79.43;96497.91;6243025;23;20020;-76
2023/01/11 13:56:10;;;;;;;0.38;0.38;;;;;;;9.56;79.51;96507.69;6245206;23;20034;-75
2023/01/11 13:58:48;;;;;;;0.47;0.30;;;;;;;9.52;79.47;96500.41;6259811;23;20028;-75
2023/01/11 14:01:20;;;;;;;0.32;0.28;;;;;;;9.50;80.16;96503.19;6251921;23;20091;-75
2023/01/11 14:03:54;;;;;;;0.50;0.40;;;;;;;9.50;80.00;96513.59;6245472;23;20112;-76
2023/01/11 14:06:41;;;;;;;1.08;0.40;;;;;;;9.48;80.61;96505.94;6242980;23;20553;-74
2023/01/11 14:09:24;;;;;;;0.40;0.40;;;;;;;9.47;80.67;96504.34;6243223;23;20480;-74
2023/01/11 14:12:05;;;;;;;0.40;0.40;;;;;;;9.47;80.63;96509.56;6242982;23;20459;-76